createdAt,value
2017-07-22T00:00:41.994Z,73.90
2017-07-22T00:03:15.798Z,73.80
2017-07-22T00:05:50.451Z,76.50
2017-07-22T00:08:24.227Z,75.70
2017-07-22T00:10:57.862Z,75.50
2017-07-22T00:13:31.525Z,78.00
2017-07-22T00:16:05.335Z,78.70
2017-07-22T00:18:40.201Z,76.10
2017-07-22T00:21:14.759Z,77.70
2017-07-22T00:23:50.340Z,76.20
2017-07-22T00:26:24.159Z,76.50
2017-07-22T00:28:58.334Z,75.90
2017-07-22T00:31:32.953Z,77.90
2017-07-22T00:34:06.945Z,79.20
2017-07-22T00:36:43.820Z,80.30
2017-07-22T00:39:17.623Z,77.40
2017-07-22T00:41:51.480Z,77.40
2017-07-22T00:44:25.324Z,78.60
2017-07-22T00:46:58.986Z,79.80
2017-07-22T00:49:32.620Z,80.20
2017-07-22T00:52:06.349Z,80.70
2017-07-22T00:54:41.133Z,78.40
2017-07-22T00:57:14.862Z,79.30
2017-07-22T00:59:48.766Z,80.50
2017-07-22T01:02:23.227Z,80.10
2017-07-22T01:04:58.199Z,80.20
2017-07-22T01:07:34.358Z,80.10
2017-07-22T01:10:10.137Z,79.80
2017-07-22T01:12:45.199Z,79.80
2017-07-22T01:15:19.834Z,79.40
2017-07-22T01:17:59.963Z,78.60
2017-07-22T01:20:33.701Z,79.10
2017-07-22T01:23:07.420Z,80.00
2017-07-22T01:25:43.357Z,79.80
2017-07-22T01:28:17.225Z,79.80
2017-07-22T01:30:52.793Z,79.50
2017-07-22T01:33:26.551Z,79.10
2017-07-22T01:36:00.292Z,81.00
2017-07-22T01:38:33.936Z,80.20
2017-07-22T01:41:09.249Z,80.00
2017-07-22T01:43:43.254Z,79.90
2017-07-22T01:46:16.947Z,81.20
2017-07-22T01:48:51.511Z,80.10
2017-07-22T01:51:25.301Z,80.10
2017-07-22T01:54:01.740Z,79.90
2017-07-22T01:56:38.007Z,80.90
2017-07-22T01:59:11.881Z,80.80
2017-07-22T02:01:45.733Z,81.50
2017-07-22T02:04:20.434Z,81.70
2017-07-22T02:06:55.662Z,80.50
2017-07-22T02:09:29.327Z,80.40
2017-07-22T02:12:03.158Z,80.30
2017-07-22T02:14:37.693Z,82.20
2017-07-22T02:17:11.355Z,81.30
2017-07-22T02:19:45.198Z,80.90
2017-07-22T02:22:19.638Z,80.10
2017-07-22T02:24:53.465Z,79.90
2017-07-22T02:27:28.313Z,79.70
2017-07-22T02:30:03.305Z,79.70
2017-07-22T02:32:37.069Z,80.80
2017-07-22T02:35:13.650Z,79.90
2017-07-22T02:37:47.285Z,80.30
2017-07-22T02:40:21.170Z,80.90
2017-07-22T02:42:57.414Z,82.20
2017-07-22T02:45:31.485Z,82.10
2017-07-22T02:48:06.044Z,81.60
2017-07-22T02:50:39.806Z,81.60
2017-07-22T02:53:14.309Z,82.30
2017-07-22T02:55:48.165Z,82.20
2017-07-22T02:58:21.941Z,82.80
2017-07-22T03:00:56.485Z,82.70
2017-07-22T03:03:31.049Z,83.40
2017-07-22T03:06:05.112Z,83.30
2017-07-22T03:08:39.650Z,82.20
2017-07-22T03:11:14.257Z,83.30
2017-07-22T03:13:47.943Z,83.30
2017-07-22T03:16:22.904Z,84.00
2017-07-22T03:18:58.528Z,84.00
2017-07-22T03:21:32.447Z,83.90
2017-07-22T03:24:06.387Z,84.10
2017-07-22T03:26:40.237Z,83.80
2017-07-22T03:29:14.114Z,84.60
2017-07-22T03:31:47.977Z,84.00
2017-07-22T03:34:22.874Z,84.10
2017-07-22T03:36:56.943Z,84.70
2017-07-22T03:39:30.601Z,84.40
2017-07-22T03:42:04.567Z,85.10
2017-07-22T03:44:40.178Z,86.30
2017-07-22T03:47:14.001Z,86.20
2017-07-22T03:49:48.716Z,85.40
2017-07-22T03:52:22.639Z,84.90
2017-07-22T03:54:56.645Z,85.80
2017-07-22T03:57:31.162Z,84.90
2017-07-22T04:00:05.250Z,84.70
2017-07-22T04:02:39.111Z,84.10
2017-07-22T04:05:12.890Z,83.70
2017-07-22T04:07:47.556Z,83.60
2017-07-22T04:10:21.644Z,83.60
2017-07-22T04:12:55.486Z,84.40
2017-07-22T04:15:30.010Z,84.70
2017-07-22T04:18:03.795Z,84.60
2017-07-22T04:20:38.526Z,83.20
2017-07-22T04:23:12.449Z,83.10
2017-07-22T04:25:47.076Z,85.30
2017-07-22T04:28:21.558Z,86.30
2017-07-22T04:30:55.361Z,86.20
2017-07-22T04:33:29.286Z,85.00
2017-07-22T04:36:03.475Z,82.90
2017-07-22T04:38:38.101Z,83.00
2017-07-22T04:41:12.553Z,85.00
2017-07-22T04:43:46.470Z,84.90
2017-07-22T04:46:20.703Z,84.60
2017-07-22T04:48:54.694Z,84.90
2017-07-22T04:51:28.574Z,84.70
2017-07-22T04:54:02.582Z,83.40
2017-07-22T04:56:36.410Z,83.10
2017-07-22T04:59:10.213Z,84.80
2017-07-22T05:01:44.067Z,82.80
2017-07-22T05:04:18.636Z,81.80
2017-07-22T05:06:52.462Z,81.60
2017-07-22T05:09:27.458Z,82.50
2017-07-22T05:12:02.090Z,82.30
2017-07-22T05:14:36.732Z,82.10
2017-07-22T05:17:10.666Z,82.10
2017-07-22T05:19:44.817Z,82.60
2017-07-22T05:24:59.682Z,83.40
2017-07-22T05:27:34.380Z,84.50
2017-07-22T05:30:09.761Z,84.00
2017-07-22T05:32:43.795Z,83.80
2017-07-22T05:35:19.281Z,84.90
2017-07-22T05:37:53.378Z,84.10
2017-07-22T05:40:27.497Z,82.70
2017-07-22T05:43:01.480Z,85.20
2017-07-22T05:45:35.218Z,85.30
2017-07-22T05:48:09.838Z,84.00
2017-07-22T05:50:44.009Z,83.70
2017-07-22T05:53:17.913Z,84.90
2017-07-22T05:55:52.515Z,84.40
2017-07-22T05:58:26.389Z,84.20
2017-07-22T06:01:00.049Z,85.10
2017-07-22T06:03:34.729Z,84.90
2017-07-22T06:06:08.481Z,84.80
2017-07-22T06:08:43.047Z,85.40
2017-07-22T06:11:17.689Z,86.40
2017-07-22T06:13:51.685Z,86.20
2017-07-22T06:16:26.180Z,84.90
2017-07-22T06:19:00.102Z,84.80
2017-07-22T06:21:33.829Z,83.00
2017-07-22T06:24:08.704Z,84.20
2017-07-22T06:26:42.540Z,83.00
2017-07-22T06:29:16.396Z,83.30
2017-07-22T06:31:50.215Z,82.80
2017-07-22T06:34:23.972Z,83.00
2017-07-22T06:36:57.848Z,83.70
2017-07-22T06:39:31.521Z,83.40
2017-07-22T06:42:06.208Z,83.40
2017-07-22T06:44:39.891Z,83.30
2017-07-22T06:47:14.596Z,82.30
2017-07-22T06:49:49.056Z,81.10
2017-07-22T06:52:23.702Z,80.90
2017-07-22T06:54:57.333Z,81.10
2017-07-22T06:57:32.426Z,80.80
2017-07-22T07:00:06.067Z,80.30
2017-07-22T07:02:40.700Z,81.90
2017-07-22T07:05:14.641Z,81.20
2017-07-22T07:07:48.548Z,81.20
2017-07-22T07:10:22.231Z,80.70
2017-07-22T07:12:56.066Z,80.30
2017-07-22T07:15:29.811Z,80.20
2017-07-22T07:18:03.587Z,79.60
2017-07-22T07:20:37.261Z,79.90
2017-07-22T07:23:11.123Z,80.30
2017-07-22T07:25:44.883Z,80.20
2017-07-22T07:28:19.416Z,80.20
2017-07-22T07:30:53.827Z,80.10
2017-07-22T07:33:28.819Z,80.40
2017-07-22T07:36:02.683Z,81.70
2017-07-22T07:38:36.430Z,81.80
2017-07-22T07:41:10.363Z,81.20
2017-07-22T07:43:44.315Z,81.80
2017-07-22T07:46:18.903Z,80.70
2017-07-22T07:48:52.818Z,79.90
2017-07-22T07:51:27.389Z,81.80
2017-07-22T07:54:03.367Z,82.50
2017-07-22T07:56:37.451Z,81.60
2017-07-22T07:59:11.388Z,81.10
2017-07-22T08:01:45.231Z,80.80
2017-07-22T08:04:19.035Z,79.90
2017-07-22T08:06:52.929Z,79.30
2017-07-22T08:09:26.663Z,78.30
2017-07-22T08:12:00.855Z,77.40
2017-07-22T08:14:35.673Z,77.10
2017-07-22T08:17:09.472Z,77.00
2017-07-22T08:19:44.015Z,77.80
2017-07-22T08:22:17.722Z,77.70
2017-07-22T08:24:51.499Z,77.80
2017-07-22T08:27:25.630Z,77.20
2017-07-22T08:29:59.485Z,77.60
2017-07-22T08:32:33.335Z,78.10
2017-07-22T08:35:07.362Z,76.80
2017-07-22T08:37:41.478Z,76.00
2017-07-22T08:40:15.178Z,75.40
2017-07-22T08:42:49.065Z,75.10
2017-07-22T08:45:22.683Z,75.00
2017-07-22T08:47:56.368Z,76.00
2017-07-22T08:50:30.072Z,75.10
2017-07-22T08:53:03.676Z,73.60
2017-07-22T08:55:37.356Z,73.00
2017-07-22T08:58:11.179Z,72.80
2017-07-22T09:00:45.152Z,73.20
2017-07-22T09:03:19.775Z,71.30
2017-07-22T09:05:53.522Z,71.30
2017-07-22T09:08:28.207Z,71.00
2017-07-22T09:11:02.717Z,72.20
2017-07-22T09:13:36.528Z,72.10
2017-07-22T09:16:10.289Z,71.80
2017-07-22T09:18:44.180Z,71.50
2017-07-22T09:21:20.089Z,70.50
2017-07-22T09:23:54.452Z,70.40
2017-07-22T09:26:28.309Z,72.50
2017-07-22T09:29:03.174Z,69.50
2017-07-22T09:31:38.439Z,69.90
2017-07-22T09:34:13.161Z,69.80
2017-07-22T09:36:46.977Z,70.00
2017-07-22T09:39:21.539Z,70.60
2017-07-22T09:41:55.762Z,70.60
2017-07-22T09:44:30.369Z,65.60
2017-07-22T09:47:04.075Z,65.50
2017-07-22T09:49:55.495Z,61.10
2017-07-22T09:52:29.419Z,61.00
2017-07-22T09:55:03.207Z,59.40
2017-07-22T09:57:37.170Z,59.80
2017-07-22T10:00:11.491Z,59.40
2017-07-22T10:02:46.206Z,59.70
2017-07-22T10:05:20.938Z,56.70
2017-07-22T10:07:55.035Z,56.70
2017-07-22T10:10:29.241Z,57.80
2017-07-22T10:13:04.655Z,57.40
2017-07-22T10:15:39.026Z,57.00
2017-07-22T10:18:12.837Z,57.10
2017-07-22T10:20:46.757Z,55.20
2017-07-22T10:23:21.244Z,58.00
2017-07-22T10:25:54.972Z,57.90
2017-07-22T10:28:29.888Z,57.70
2017-07-22T10:31:04.389Z,57.60
2017-07-22T10:33:38.158Z,57.30
2017-07-22T10:36:11.892Z,57.40
2017-07-22T10:38:45.868Z,57.00
2017-07-22T10:41:21.208Z,55.80
2017-07-22T10:43:57.036Z,55.60
2017-07-22T10:46:30.973Z,56.80
2017-07-22T10:49:05.064Z,57.10
2017-07-22T10:51:39.866Z,57.00
2017-07-22T10:54:13.964Z,55.70
2017-07-22T10:56:47.891Z,53.70
2017-07-22T10:59:22.391Z,54.20
2017-07-22T11:01:57.604Z,53.30
2017-07-22T11:04:32.243Z,53.10
2017-07-22T11:07:07.719Z,53.80
2017-07-22T11:09:46.898Z,54.00
2017-07-22T11:12:21.693Z,54.10
2017-07-22T11:14:55.405Z,56.20
2017-07-22T11:17:29.293Z,54.50
2017-07-22T11:22:43.239Z,52.60
2017-07-22T11:25:18.021Z,53.30
2017-07-22T11:27:52.493Z,53.20
2017-07-22T11:30:28.599Z,53.20
2017-07-22T11:33:07.846Z,53.10
2017-07-22T11:35:44.724Z,50.80
2017-07-22T11:38:19.329Z,51.00
2017-07-22T11:40:54.739Z,53.70
2017-07-22T11:43:33.547Z,54.00
2017-07-22T11:46:07.520Z,50.60
2017-07-22T11:51:22.324Z,51.80
2017-07-22T11:53:56.549Z,50.90
2017-07-22T11:56:30.898Z,50.90
2017-07-22T11:59:07.196Z,52.50
2017-07-22T12:01:42.001Z,51.80
2017-07-22T12:04:17.580Z,51.30
2017-07-22T12:06:52.945Z,50.00
2017-07-22T12:09:27.730Z,50.70
2017-07-22T12:12:02.398Z,49.30
2017-07-22T12:14:36.861Z,49.20
2017-07-22T12:17:30.563Z,49.20
2017-07-22T12:20:04.852Z,47.40
2017-07-22T12:22:40.081Z,50.30
2017-07-22T12:25:15.310Z,48.30
2017-07-22T12:27:52.210Z,50.20
2017-07-22T12:30:27.000Z,49.70
2017-07-22T12:33:04.641Z,49.40
2017-07-22T12:35:39.786Z,48.70
2017-07-22T12:43:56.537Z,50.10
2017-07-22T12:46:30.186Z,48.80
2017-07-22T12:49:11.103Z,50.10
2017-07-22T12:51:44.908Z,49.60
2017-07-22T12:54:21.281Z,50.00
2017-07-22T12:56:57.088Z,49.60
2017-07-22T12:59:34.536Z,49.30
2017-07-22T13:02:11.675Z,48.70
2017-07-22T13:04:54.374Z,48.30
2017-07-22T13:07:27.945Z,48.30
2017-07-22T13:10:01.612Z,48.10
2017-07-22T13:12:35.335Z,49.00
2017-07-22T13:15:08.976Z,47.80
2017-07-22T13:17:43.538Z,48.60
2017-07-22T13:20:17.181Z,48.00
2017-07-22T13:22:51.663Z,49.00
2017-07-22T13:25:25.305Z,48.90
2017-07-22T13:27:58.999Z,48.20
2017-07-22T13:30:32.806Z,45.90
2017-07-22T13:33:07.317Z,47.80
2017-07-22T13:35:40.901Z,47.70
2017-07-22T13:38:14.529Z,48.10
2017-07-22T13:40:48.105Z,46.50
2017-07-22T13:43:21.713Z,43.80
2017-07-22T13:45:55.396Z,44.20
2017-07-22T13:48:28.976Z,46.10
2017-07-22T13:51:02.660Z,45.00
2017-07-22T13:53:36.173Z,44.20
2017-07-22T13:56:09.985Z,43.50
2017-07-22T13:58:43.500Z,45.10
2017-07-22T14:01:18.389Z,43.30
2017-07-22T14:04:14.600Z,43.30
2017-07-22T14:06:52.474Z,43.30
2017-07-22T14:09:27.778Z,44.00
2017-07-22T14:12:01.482Z,43.40
2017-07-22T14:14:35.317Z,44.70
2017-07-22T14:17:09.186Z,43.10
2017-07-22T14:19:43.729Z,43.80
2017-07-22T14:22:17.288Z,43.80
2017-07-22T14:24:50.954Z,44.70
2017-07-22T14:27:24.645Z,45.50
2017-07-22T14:29:59.290Z,45.90
2017-07-22T14:32:33.291Z,45.90
2017-07-22T14:35:09.336Z,44.60
2017-07-22T14:37:48.139Z,45.10
2017-07-22T14:40:30.618Z,43.00
2017-07-22T14:43:06.862Z,43.90
2017-07-22T14:45:48.267Z,44.20
2017-07-22T14:48:30.728Z,45.20
2017-07-22T14:51:09.693Z,42.60
2017-07-22T14:53:47.728Z,42.00
2017-07-22T14:56:22.420Z,44.10
2017-07-22T14:58:59.073Z,43.40
2017-07-22T15:01:38.481Z,42.50
2017-07-22T15:04:19.354Z,43.30
2017-07-22T15:06:55.228Z,42.00
2017-07-22T15:09:33.492Z,44.00
2017-07-22T15:12:13.639Z,42.50
2017-07-22T15:14:49.712Z,43.30
2017-07-22T15:17:24.534Z,43.90
2017-07-22T15:20:04.493Z,43.90
2017-07-22T15:22:43.345Z,43.30
2017-07-22T15:25:18.426Z,42.50
2017-07-22T15:27:58.285Z,42.80
2017-07-22T15:30:33.166Z,42.30
2017-07-22T15:33:10.256Z,41.10
2017-07-22T15:35:45.736Z,42.20
2017-07-22T15:38:20.678Z,41.10
2017-07-22T15:40:59.022Z,41.00
2017-07-22T15:43:37.959Z,42.20
2017-07-22T15:46:17.366Z,42.30
2017-07-22T15:49:00.761Z,42.60
2017-07-22T15:51:37.853Z,42.00
2017-07-22T15:54:17.145Z,42.00
2017-07-22T15:56:54.810Z,39.80
2017-07-22T16:02:26.041Z,41.10
2017-07-22T16:05:00.556Z,41.00
2017-07-22T16:07:34.404Z,39.70
2017-07-22T16:10:10.033Z,41.30
2017-07-22T16:12:44.444Z,42.30
2017-07-22T16:15:20.419Z,40.70
2017-07-22T16:18:00.835Z,40.80
2017-07-22T16:20:34.785Z,42.70
2017-07-22T16:23:09.117Z,42.90
2017-07-22T16:25:42.844Z,39.80
2017-07-22T16:28:18.343Z,41.70
2017-07-22T16:30:53.524Z,39.80
2017-07-22T16:33:27.956Z,41.00
2017-07-22T16:36:03.763Z,40.80
2017-07-22T16:38:37.430Z,40.20
2017-07-22T16:41:11.299Z,39.30
2017-07-22T16:43:45.009Z,39.20
2017-07-22T16:46:21.571Z,39.20
2017-07-22T16:48:56.263Z,39.30
2017-07-22T16:51:31.157Z,40.20
2017-07-22T16:54:05.121Z,41.40
2017-07-22T16:56:40.782Z,42.20
2017-07-22T16:59:16.716Z,44.00
2017-07-22T17:01:51.890Z,44.30
2017-07-22T17:04:26.102Z,43.40
2017-07-22T17:07:00.003Z,41.70
2017-07-22T17:09:34.621Z,43.20
2017-07-22T17:12:08.489Z,43.00
2017-07-22T17:15:05.663Z,44.70
2017-07-22T17:17:40.062Z,46.40
2017-07-22T17:20:18.970Z,44.20
2017-07-22T17:22:53.086Z,43.50
2017-07-22T17:25:28.278Z,42.00
2017-07-22T17:28:03.039Z,41.70
2017-07-22T17:30:37.276Z,41.70
2017-07-22T17:33:14.111Z,43.20
2017-07-22T17:35:47.953Z,44.80
2017-07-22T17:38:21.978Z,45.00
2017-07-22T17:40:55.800Z,45.40
2017-07-22T17:43:29.742Z,45.30
2017-07-22T17:46:03.468Z,45.20
2017-07-22T17:48:37.384Z,44.50
2017-07-22T17:51:11.424Z,44.90
2017-07-22T17:53:45.364Z,46.90
2017-07-22T17:56:19.445Z,46.70
2017-07-22T17:58:53.238Z,44.00
2017-07-22T18:01:27.255Z,46.10
2017-07-22T18:04:01.454Z,48.10
2017-07-22T18:06:36.159Z,49.60
2017-07-22T18:09:10.284Z,49.50
2017-07-22T18:11:44.193Z,49.40
2017-07-22T18:14:17.995Z,50.60
2017-07-22T18:16:51.821Z,52.20
2017-07-22T18:19:25.707Z,53.40
2017-07-22T18:22:00.705Z,54.40
2017-07-22T18:24:34.883Z,54.50
2017-07-22T18:27:08.702Z,55.20
2017-07-22T18:29:43.393Z,57.30
2017-07-22T18:32:18.242Z,57.30
2017-07-22T18:34:54.289Z,62.70
2017-07-22T18:37:27.765Z,55.60
2017-07-22T18:40:01.422Z,55.20
2017-07-22T18:42:34.797Z,55.40
2017-07-22T18:45:08.000Z,56.20
2017-07-22T18:47:41.311Z,57.10
2017-07-22T18:50:14.471Z,56.80
2017-07-22T18:52:47.674Z,56.40
2017-07-22T18:55:21.032Z,57.30
2017-07-22T18:57:55.146Z,57.70
2017-07-22T19:00:28.456Z,57.90
2017-07-22T19:03:01.704Z,58.10
2017-07-22T19:05:34.984Z,58.70
2017-07-22T19:08:08.045Z,58.90
2017-07-22T19:10:41.199Z,59.00
2017-07-22T19:13:14.516Z,58.90
2017-07-22T19:15:47.795Z,59.20
2017-07-22T19:18:20.907Z,59.50
2017-07-22T19:20:54.200Z,59.30
2017-07-22T19:23:27.365Z,60.00
2017-07-22T19:26:00.716Z,60.30
2017-07-22T19:28:33.916Z,60.00
2017-07-22T19:31:07.084Z,59.90
2017-07-22T19:33:40.384Z,59.90
2017-07-22T19:36:13.522Z,60.30
2017-07-22T19:38:46.768Z,60.60
2017-07-22T19:41:19.949Z,60.30
2017-07-22T19:43:53.241Z,60.90
2017-07-22T19:46:26.497Z,61.50
2017-07-22T19:48:59.825Z,62.00
2017-07-22T19:51:33.003Z,62.70
2017-07-22T19:54:06.198Z,63.50
2017-07-22T19:56:39.352Z,64.40
2017-07-22T19:59:12.532Z,64.80
2017-07-22T20:01:46.482Z,65.50
2017-07-22T20:04:20.402Z,65.90
2017-07-22T20:06:53.508Z,65.70
2017-07-22T20:09:26.639Z,65.50
2017-07-22T20:11:59.745Z,66.10
2017-07-22T20:14:33.890Z,66.90
2017-07-22T20:17:07.038Z,66.80
2017-07-22T20:19:40.161Z,66.80
2017-07-22T20:22:14.048Z,66.10
2017-07-22T20:24:47.233Z,66.00
2017-07-22T20:27:21.240Z,66.20
2017-07-22T20:29:55.295Z,66.40
2017-07-22T20:32:28.556Z,65.50
2017-07-22T20:35:02.520Z,65.60
2017-07-22T20:37:35.707Z,65.50
2017-07-22T20:40:09.023Z,65.50
2017-07-22T20:42:42.169Z,65.40
2017-07-22T20:45:15.445Z,65.10
2017-07-22T20:47:48.680Z,65.20
2017-07-22T20:50:21.809Z,65.40
2017-07-22T20:52:55.181Z,65.10
2017-07-22T20:55:28.339Z,65.50
2017-07-22T20:58:01.595Z,66.20
2017-07-22T21:00:35.506Z,66.50
2017-07-22T21:03:08.703Z,66.50
2017-07-22T21:05:41.971Z,66.20
2017-07-22T21:08:15.219Z,66.20
2017-07-22T21:10:48.456Z,66.10
2017-07-22T21:13:21.646Z,66.50
2017-07-22T21:15:54.852Z,66.30
2017-07-22T21:18:28.076Z,66.40
2017-07-22T21:21:01.422Z,66.20
2017-07-22T21:23:34.697Z,66.80
2017-07-22T21:26:07.966Z,67.00
2017-07-22T21:28:41.153Z,67.20
2017-07-22T21:31:14.687Z,67.20
2017-07-22T21:33:47.955Z,67.40
2017-07-22T21:36:21.331Z,67.50
2017-07-22T21:38:54.649Z,67.30
2017-07-22T21:41:27.783Z,67.20
2017-07-22T21:44:01.101Z,67.30
2017-07-22T21:46:34.227Z,67.50
2017-07-22T21:49:07.385Z,67.50
2017-07-22T21:51:40.712Z,67.60
2017-07-22T21:54:19.867Z,67.60
2017-07-22T21:56:53.468Z,67.90
2017-07-22T21:59:26.772Z,68.00
2017-07-22T22:02:00.051Z,68.30
2017-07-22T22:04:33.194Z,68.50
2017-07-22T22:07:06.335Z,68.60
2017-07-22T22:09:40.359Z,68.50
2017-07-22T22:12:15.105Z,68.40
2017-07-22T22:14:48.340Z,68.30
2017-07-22T22:17:21.624Z,68.40
2017-07-22T22:19:54.897Z,68.40
2017-07-22T22:22:28.023Z,68.60
2017-07-22T22:25:01.277Z,68.80
2017-07-22T22:27:34.685Z,68.80
2017-07-22T22:30:07.912Z,70.10
2017-07-22T22:32:41.175Z,71.90
2017-07-22T22:35:14.462Z,72.10
2017-07-22T22:37:47.795Z,71.60
2017-07-22T22:40:21.088Z,70.90
2017-07-22T22:42:54.318Z,70.40
2017-07-22T22:45:28.192Z,69.90
2017-07-22T22:48:01.498Z,69.70
2017-07-22T22:50:34.718Z,70.00
2017-07-22T22:53:07.897Z,70.00
2017-07-22T22:55:41.334Z,70.00
2017-07-22T22:58:15.200Z,70.90
2017-07-22T23:00:48.457Z,70.30
2017-07-22T23:03:22.530Z,71.00
2017-07-22T23:05:55.719Z,70.70
2017-07-22T23:08:29.839Z,70.90
2017-07-22T23:11:02.964Z,70.80
2017-07-22T23:13:36.171Z,71.10
2017-07-22T23:16:10.189Z,72.60
2017-07-22T23:18:43.517Z,72.50
2017-07-22T23:21:16.854Z,71.90
2017-07-22T23:23:50.188Z,71.30
2017-07-22T23:26:23.483Z,71.20
2017-07-22T23:28:56.815Z,71.50
2017-07-22T23:31:30.045Z,71.80
2017-07-22T23:34:03.975Z,71.40
2017-07-22T23:36:39.356Z,72.20
2017-07-22T23:39:13.553Z,73.30
2017-07-22T23:41:46.932Z,73.30
2017-07-22T23:47:10.845Z,72.30
2017-07-22T23:49:44.148Z,73.80
2017-07-22T23:52:17.352Z,76.20
2017-07-22T23:54:50.645Z,77.90
2017-07-22T23:57:23.884Z,76.00
2017-07-22T23:59:57.072Z,70.50
